Newcastle, TX (76372)

1:01 PM CDT on October 25, 2014 (GMT -0500)
DDR Longhorns Graham, Texas | Change Station
CLOSE
Current Station
Personal Weather Station
Location: Graham, TX
Elevation: 1178 ft
Nearby Weather Stations

Elev 1178 ft 33.18 °N, 98.67 °W | Updated 6 seconds ago

Clear
Clear
84.0 °F
Feels Like 83 °F
N
4.0
Wind Variable Wind from NNE
Gusts 5.0 mph

Today
High -- | Low -- °F
--% Chance of Precip.
Yesterday
High -- | Low -- °F
Precip. -- in
7:47 AM 6:50 PM
Waxing Crescent, 4% visible
Pressure 30.12 in
Visibility 10.0 miles
Clouds Clear
Heat Index 83 °F
Dew Point 56 °F
Humidity 38%
Rainfall 0.00 in
Snow Depth Not available.
UV 6 out of 12
Pollen 5.60 out of 12
Air Quality Not available.
Flu Activity Local Activity
METAR KRPH 251730Z AUTO 26005KT 10SM CLR 30/15 A3012 RMK AO2 T02960154

More Conditions Fewer Conditions

Pressure 30.12 in
Visibility 10.0 miles
Clouds Clear
Heat Index 83 °F
Dew Point 56 °F
Humidity 38%
Rainfall 0.00 in
Snow Depth Not available.
UV 6 out of 12
Pollen 5.60 out of 12
Air Quality Not available.
Flu Activity Local Activity
METAR KRPH 251730Z AUTO 26005KT 10SM CLR 30/15 A3012 RMK AO2 T02960154

More Conditions Fewer Conditions

10-Day Weather Forecast

Almanac

Astronomy

Oct. 25, 2014 Rise Set
Actual Time 7:47 AM CDT 6:50 PM CDT
Civil Twilight 7:22 AM CDT 7:15 PM CDT
Nautical Twilight 6:53 AM CDT 7:44 PM CDT
Astronomical Twilight 6:24 AM CDT 8:13 PM CDT
Moon 9:24 AM CDT 8:19 PM CDT
Length of Visible Light 11h 53m
Length of Day
11h 02m
Tomorrow will be 1m 52s shorter.
Waxing Crescent, 4% of the Moon is Illuminated
Today
Waxing Crescent
Oct 30
First Quarter
Nov 6
Full
Nov 14
Last Quarter
Nov 22
New

Today's Extremes

State Highs State Lows

Community

WunderPhotos

Upload Photos

1,764,926 photos uploaded!

Nearby

Snow Depth

Station Depth Elevation
No new snow has been reported.

Earthquake Activity

City Distance Mag. Time & Date
No recent earthquake activity has been reported nearby.
Minimum magnitude displayed is 2.5.

Coastal Water Temperatures

Place Temperature
No Stations Reporting

Nearby Weather Stations